sensor_id;sensor_type;location;lat;lon;timestamp;pressure;altitude;pressure_sealevel;temperature;humidity
21658;BME280;10990;48.174;9.782;2023-02-28T00:01:21;94725.50;;;-3.04;100.00
21658;BME280;10990;48.174;9.782;2023-02-28T00:03:48;94717.66;;;-3.03;100.00
21658;BME280;10990;48.174;9.782;2023-02-28T00:06:14;94717.41;;;-2.98;100.00
21658;BME280;10990;48.174;9.782;2023-02-28T00:08:41;94712.69;;;-3.06;100.00
21658;BME280;10990;48.174;9.782;2023-02-28T00:11:09;94701.22;;;-3.02;100.00
21658;BME280;10990;48.174;9.782;2023-02-28T00:13:38;94692.72;;;-3.04;100.00
21658;BME280;10990;48.174;9.782;2023-02-28T00:16:09;94686.81;;;-3.06;100.00
21658;BME280;10990;48.174;9.782;2023-02-28T00:18:36;94670.34;;;-3.05;100.00
21658;BME280;10990;48.174;9.782;2023-02-28T00:21:03;94655.84;;;-3.07;100.00
21658;BME280;10990;48.174;9.782;2023-02-28T00:23:30;94654.75;;;-3.03;100.00
21658;BME280;10990;48.174;9.782;2023-02-28T00:25:57;94646.72;;;-2.99;100.00
21658;BME280;10990;48.174;9.782;2023-02-28T00:28:24;94646.19;;;-3.04;100.00
21658;BME280;10990;48.174;9.782;2023-02-28T00:30:51;94631.56;;;-3.05;100.00
21658;BME280;10990;48.174;9.782;2023-02-28T00:33:19;94628.97;;;-3.05;100.00
21658;BME280;10990;48.174;9.782;2023-02-28T00:35:46;94623.81;;;-3.05;100.00
21658;BME280;10990;48.174;9.782;2023-02-28T00:38:14;94621.13;;;-3.03;100.00
21658;BME280;10990;48.174;9.782;2023-02-28T00:40:41;94620.78;;;-3.11;100.00
21658;BME280;10990;48.174;9.782;2023-02-28T00:43:10;94617.16;;;-3.09;100.00
21658;BME280;10990;48.174;9.782;2023-02-28T00:45:36;94612.91;;;-3.10;100.00
21658;BME280;10990;48.174;9.782;2023-02-28T00:48:04;94624.09;;;-3.09;100.00
21658;BME280;10990;48.174;9.782;2023-02-28T00:50:32;94616.97;;;-3.06;100.00
21658;BME280;10990;48.174;9.782;2023-02-28T00:52:59;94609.84;;;-3.02;100.00
21658;BME280;10990;48.174;9.782;2023-02-28T00:55:26;94612.38;;;-3.01;100.00
21658;BME280;10990;48.174;9.782;2023-02-28T00:57:53;94614.28;;;-3.04;100.00
21658;BME280;10990;48.174;9.782;2023-02-28T01:00:20;94615.13;;;-3.04;100.00
21658;BME280;10990;48.174;9.782;2023-02-28T01:02:49;94609.09;;;-3.04;100.00
21658;BME280;10990;48.174;9.782;2023-02-28T01:05:16;94610.88;;;-3.05;100.00
21658;BME280;10990;48.174;9.782;2023-02-28T01:07:45;94608.09;;;-3.02;100.00
21658;BME280;10990;48.174;9.782;2023-02-28T01:10:12;94613.00;;;-2.97;100.00
21658;BME280;10990;48.174;9.782;2023-02-28T01:12:39;94616.72;;;-3.01;100.00
21658;BME280;10990;48.174;9.782;2023-02-28T01:15:10;94625.00;;;-2.96;100.00
21658;BME280;10990;48.174;9.782;2023-02-28T01:17:37;94618.16;;;-2.97;100.00
21658;BME280;10990;48.174;9.782;2023-02-28T01:20:05;94626.94;;;-3.00;100.00
21658;BME280;10990;48.174;9.782;2023-02-28T01:22:34;94635.25;;;-2.95;100.00
21658;BME280;10990;48.174;9.782;2023-02-28T01:25:03;94635.25;;;-2.95;100.00
21658;BME280;10990;48.174;9.782;2023-02-28T01:27:30;94637.03;;;-2.95;100.00
21658;BME280;10990;48.174;9.782;2023-02-28T01:29:57;94646.25;;;-2.91;100.00
21658;BME280;10990;48.174;9.782;2023-02-28T01:32:24;94641.72;;;-2.87;100.00
21658;BME280;10990;48.174;9.782;2023-02-28T01:34:51;94646.06;;;-2.88;100.00
21658;BME280;10990;48.174;9.782;2023-02-28T01:37:18;94649.78;;;-2.92;100.00
21658;BME280;10990;48.174;9.782;2023-02-28T01:39:44;94645.97;;;-2.86;100.00
21658;BME280;10990;48.174;9.782;2023-02-28T01:42:12;94652.91;;;-2.87;100.00
21658;BME280;10990;48.174;9.782;2023-02-28T01:44:59;94648.94;;;-2.92;100.00
21658;BME280;10990;48.174;9.782;2023-02-28T01:47:29;94656.50;;;-2.89;100.00
21658;BME280;10990;48.174;9.782;2023-02-28T01:49:58;94657.53;;;-2.92;100.00
21658;BME280;10990;48.174;9.782;2023-02-28T01:52:27;94668.78;;;-2.93;100.00
21658;BME280;10990;48.174;9.782;2023-02-28T01:54:55;94670.47;;;-2.92;100.00
21658;BME280;10990;48.174;9.782;2023-02-28T01:57:27;94685.50;;;-2.99;100.00
21658;BME280;10990;48.174;9.782;2023-02-28T02:00:00;94688.00;;;-2.97;100.00
21658;BME280;10990;48.174;9.782;2023-02-28T02:02:38;94688.75;;;-2.95;100.00
21658;BME280;10990;48.174;9.782;2023-02-28T02:05:10;94698.44;;;-2.99;100.00
21658;BME280;10990;48.174;9.782;2023-02-28T02:07:39;94696.34;;;-2.92;100.00
21658;BME280;10990;48.174;9.782;2023-02-28T02:10:11;94712.22;;;-2.98;100.00
21658;BME280;10990;48.174;9.782;2023-02-28T02:13:05;94723.28;;;-2.96;100.00
21658;BME280;10990;48.174;9.782;2023-02-28T02:15:40;94730.16;;;-2.95;100.00
21658;BME280;10990;48.174;9.782;2023-02-28T02:18:17;94727.75;;;-2.98;100.00
21658;BME280;10990;48.174;9.782;2023-02-28T02:21:24;94731.25;;;-2.99;100.00
21658;BME280;10990;48.174;9.782;2023-02-28T02:27:09;94738.09;;;-2.98;100.00
21658;BME280;10990;48.174;9.782;2023-02-28T02:29:55;94749.91;;;-2.94;100.00
21658;BME280;10990;48.174;9.782;2023-02-28T02:32:42;94746.13;;;-3.03;100.00
21658;BME280;10990;48.174;9.782;2023-02-28T02:35:20;94738.72;;;-2.95;100.00
21658;BME280;10990;48.174;9.782;2023-02-28T02:37:52;94745.56;;;-2.94;100.00
21658;BME280;10990;48.174;9.782;2023-02-28T02:40:27;94751.94;;;-2.99;100.00
21658;BME280;10990;48.174;9.782;2023-02-28T02:43:01;94760.44;;;-2.97;100.00
21658;BME280;10990;48.174;9.782;2023-02-28T02:45:33;94765.44;;;-2.94;100.00
21658;BME280;10990;48.174;9.782;2023-02-28T02:48:03;94772.72;;;-3.01;100.00
21658;BME280;10990;48.174;9.782;2023-02-28T02:50:36;94777.53;;;-2.95;100.00
21658;BME280;10990;48.174;9.782;2023-02-28T02:53:05;94778.38;;;-2.94;100.00
21658;BME280;10990;48.174;9.782;2023-02-28T02:55:37;94780.19;;;-2.96;100.00
21658;BME280;10990;48.174;9.782;2023-02-28T02:58:09;94785.28;;;-2.95;100.00
21658;BME280;10990;48.174;9.782;2023-02-28T03:00:39;94784.66;;;-2.98;100.00
21658;BME280;10990;48.174;9.782;2023-02-28T03:03:10;94780.94;;;-2.94;100.00
21658;BME280;10990;48.174;9.782;2023-02-28T03:05:42;94780.13;;;-2.95;100.00
21658;BME280;10990;48.174;9.782;2023-02-28T03:08:11;94786.94;;;-2.94;100.00
21658;BME280;10990;48.174;9.782;2023-02-28T03:10:39;94790.72;;;-2.99;100.00
21658;BME280;10990;48.174;9.782;2023-02-28T03:13:38;94787.97;;;-2.96;100.00
21658;BME280;10990;48.174;9.782;2023-02-28T03:16:23;94794.00;;;-2.96;100.00
21658;BME280;10990;48.174;9.782;2023-02-28T03:18:59;94792.88;;;-2.91;100.00
21658;BME280;10990;48.174;9.782;2023-02-28T03:21:33;94790.53;;;-2.96;100.00
21658;BME280;10990;48.174;9.782;2023-02-28T03:24:05;94811.34;;;-2.98;100.00
21658;BME280;10990;48.174;9.782;2023-02-28T03:26:38;94814.69;;;-2.96;100.00
21658;BME280;10990;48.174;9.782;2023-02-28T03:29:09;94818.94;;;-2.95;100.00
21658;BME280;10990;48.174;9.782;2023-02-28T03:31:46;94808.66;;;-2.96;100.00
21658;BME280;10990;48.174;9.782;2023-02-28T03:34:18;94819.69;;;-2.92;100.00
21658;BME280;10990;48.174;9.782;2023-02-28T03:36:52;94818.94;;;-2.95;100.00
21658;BME280;10990;48.174;9.782;2023-02-28T03:39:22;94819.50;;;-2.89;100.00
21658;BME280;10990;48.174;9.782;2023-02-28T03:41:53;94832.63;;;-2.92;100.00
21658;BME280;10990;48.174;9.782;2023-02-28T03:44:26;94837.88;;;-2.94;100.00
21658;BME280;10990;48.174;9.782;2023-02-28T03:46:58;94833.34;;;-2.90;100.00
21658;BME280;10990;48.174;9.782;2023-02-28T03:49:30;94836.94;;;-2.93;100.00
21658;BME280;10990;48.174;9.782;2023-02-28T03:52:02;94840.44;;;-2.94;100.00
21658;BME280;10990;48.174;9.782;2023-02-28T03:54:31;94836.94;;;-2.93;100.00
21658;BME280;10990;48.174;9.782;2023-02-28T03:57:04;94841.97;;;-2.90;100.00
21658;BME280;10990;48.174;9.782;2023-02-28T03:59:37;94841.03;;;-2.89;100.00
21658;BME280;10990;48.174;9.782;2023-02-28T04:02:04;94846.19;;;-2.89;100.00
21658;BME280;10990;48.174;9.782;2023-02-28T04:04:31;94860.31;;;-2.95;100.00
21658;BME280;10990;48.174;9.782;2023-02-28T04:07:05;94854.03;;;-2.90;100.00
21658;BME280;10990;48.174;9.782;2023-02-28T04:09:32;94862.72;;;-2.91;100.00
21658;BME280;10990;48.174;9.782;2023-02-28T04:11:59;94853.78;;;-2.86;100.00
21658;BME280;10990;48.174;9.782;2023-02-28T04:14:26;94855.63;;;-2.88;100.00
21658;BME280;10990;48.174;9.782;2023-02-28T04:16:53;94857.47;;;-2.90;100.00
21658;BME280;10990;48.174;9.782;2023-02-28T04:19:20;94863.47;;;-2.89;100.00
21658;BME280;10990;48.174;9.782;2023-02-28T04:21:48;94865.25;;;-2.90;100.00
21658;BME280;10990;48.174;9.782;2023-02-28T04:24:19;94868.72;;;-2.91;100.00
21658;BME280;10990;48.174;9.782;2023-02-28T04:26:49;94875.59;;;-2.90;100.00
21658;BME280;10990;48.174;9.782;2023-02-28T04:29:19;94870.06;;;-2.84;100.00
21658;BME280;10990;48.174;9.782;2023-02-28T04:31:46;94879.72;;;-2.87;100.00
21658;BME280;10990;48.174;9.782;2023-02-28T04:34:12;94893.69;;;-2.90;100.00
21658;BME280;10990;48.174;9.782;2023-02-28T04:36:40;94903.13;;;-2.89;100.00
21658;BME280;10990;48.174;9.782;2023-02-28T04:39:06;94900.44;;;-2.87;100.00
21658;BME280;10990;48.174;9.782;2023-02-28T04:41:36;94909.22;;;-2.90;100.00
21658;BME280;10990;48.174;9.782;2023-02-28T04:44:03;94915.13;;;-2.88;100.00
21658;BME280;10990;48.174;9.782;2023-02-28T04:46:30;94907.88;;;-2.81;100.00
21658;BME280;10990;48.174;9.782;2023-02-28T04:48:56;94914.50;;;-2.77;100.00
21658;BME280;10990;48.174;9.782;2023-02-28T04:51:23;94913.69;;;-2.78;100.00
21658;BME280;10990;48.174;9.782;2023-02-28T04:53:50;94924.09;;;-2.79;100.00
21658;BME280;10990;48.174;9.782;2023-02-28T04:56:17;94928.28;;;-2.77;100.00
21658;BME280;10990;48.174;9.782;2023-02-28T04:58:46;94930.97;;;-2.78;100.00
21658;BME280;10990;48.174;9.782;2023-02-28T05:01:21;94923.69;;;-2.72;100.00
21658;BME280;10990;48.174;9.782;2023-02-28T05:03:49;94931.81;;;-2.78;100.00
21658;BME280;10990;48.174;9.782;2023-02-28T05:06:16;94939.63;;;-2.79;100.00
21658;BME280;10990;48.174;9.782;2023-02-28T05:08:43;94945.41;;;-2.74;100.00
21658;BME280;10990;48.174;9.782;2023-02-28T05:11:16;94952.41;;;-2.76;100.00
21658;BME280;10990;48.174;9.782;2023-02-28T05:13:44;94950.84;;;-2.79;100.00
21658;BME280;10990;48.174;9.782;2023-02-28T05:16:12;94945.41;;;-2.74;100.00
21658;BME280;10990;48.174;9.782;2023-02-28T05:18:39;94947.06;;;-2.73;100.00
21658;BME280;10990;48.174;9.782;2023-02-28T05:21:06;94957.75;;;-2.79;100.00
21658;BME280;10990;48.174;9.782;2023-02-28T05:23:32;94961.75;;;-2.74;100.00
21658;BME280;10990;48.174;9.782;2023-02-28T05:25:59;94953.91;;;-2.72;100.00
21658;BME280;10990;48.174;9.782;2023-02-28T05:28:26;94965.63;;;-2.81;100.00
21658;BME280;10990;48.174;9.782;2023-02-28T05:30:52;94961.56;;;-2.71;100.00
21658;BME280;10990;48.174;9.782;2023-02-28T05:33:20;94965.34;;;-2.76;100.00
21658;BME280;10990;48.174;9.782;2023-02-28T05:35:47;94974.13;;;-2.79;100.00
21658;BME280;10990;48.174;9.782;2023-02-28T05:38:14;94974.22;;;-2.80;100.00
21658;BME280;10990;48.174;9.782;2023-02-28T05:40:40;94978.63;;;-2.82;100.00
21658;BME280;10990;48.174;9.782;2023-02-28T05:43:10;94977.72;;;-2.81;100.00
21658;BME280;10990;48.174;9.782;2023-02-28T05:45:37;94976.78;;;-2.80;100.00
21658;BME280;10990;48.174;9.782;2023-02-28T05:48:04;94973.38;;;-2.81;100.00
21658;BME280;10990;48.174;9.782;2023-02-28T05:50:32;94973.19;;;-2.78;100.00
21658;BME280;10990;48.174;9.782;2023-02-28T05:52:59;94968.09;;;-2.79;100.00
21658;BME280;10990;48.174;9.782;2023-02-28T05:55:26;94972.72;;;-2.84;100.00
21658;BME280;10990;48.174;9.782;2023-02-28T05:57:52;94980.50;;;-2.84;100.00
21658;BME280;10990;48.174;9.782;2023-02-28T06:00:20;94969.88;;;-2.80;100.00
21658;BME280;10990;48.174;9.782;2023-02-28T06:02:46;94970.63;;;-2.78;100.00
21658;BME280;10990;48.174;9.782;2023-02-28T06:05:15;94968.84;;;-2.77;100.00
21658;BME280;10990;48.174;9.782;2023-02-28T06:07:43;94971.44;;;-2.77;100.00
21658;BME280;10990;48.174;9.782;2023-02-28T06:10:11;94965.44;;;-2.78;100.00
21658;BME280;10990;48.174;9.782;2023-02-28T06:12:38;94971.56;;;-2.79;100.00
21658;BME280;10990;48.174;9.782;2023-02-28T06:15:09;94976.63;;;-2.77;100.00
21658;BME280;10990;48.174;9.782;2023-02-28T06:17:38;94980.03;;;-2.77;100.00
21658;BME280;10990;48.174;9.782;2023-02-28T06:20:06;94980.97;;;-2.78;100.00
21658;BME280;10990;48.174;9.782;2023-02-28T06:22:32;94979.97;;;-2.75;100.00
21658;BME280;10990;48.174;9.782;2023-02-28T06:25:01;94983.44;;;-2.76;100.00
21658;BME280;10990;48.174;9.782;2023-02-28T06:27:27;94982.63;;;-2.77;100.00
21658;BME280;10990;48.174;9.782;2023-02-28T06:29:55;94994.56;;;-2.74;100.00
21658;BME280;10990;48.174;9.782;2023-02-28T06:32:22;94998.31;;;-2.80;100.00
21658;BME280;10990;48.174;9.782;2023-02-28T06:34:48;94987.56;;;-2.72;100.00
21658;BME280;10990;48.174;9.782;2023-02-28T06:37:16;94994.50;;;-2.73;100.00
21658;BME280;10990;48.174;9.782;2023-02-28T06:39:43;94993.50;;;-2.70;100.00
21658;BME280;10990;48.174;9.782;2023-02-28T06:42:11;94997.81;;;-2.71;100.00
21658;BME280;10990;48.174;9.782;2023-02-28T06:44:38;94996.06;;;-2.70;100.00
21658;BME280;10990;48.174;9.782;2023-02-28T06:47:06;95002.16;;;-2.71;100.00
21658;BME280;10990;48.174;9.782;2023-02-28T06:49:35;94998.75;;;-2.72;100.00
21658;BME280;10990;48.174;9.782;2023-02-28T06:52:01;94990.78;;;-2.68;100.00
21658;BME280;10990;48.174;9.782;2023-02-28T06:54:28;95001.31;;;-2.72;100.00
21658;BME280;10990;48.174;9.782;2023-02-28T06:56:55;95005.44;;;-2.67;100.00
21658;BME280;10990;48.174;9.782;2023-02-28T06:59:25;95002.97;;;-2.71;100.00
21658;BME280;10990;48.174;9.782;2023-02-28T07:01:51;95008.84;;;-2.67;100.00
21658;BME280;10990;48.174;9.782;2023-02-28T07:04:18;95011.50;;;-2.68;100.00
21658;BME280;10990;48.174;9.782;2023-02-28T07:06:45;95010.31;;;-2.63;100.00
21658;BME280;10990;48.174;9.782;2023-02-28T07:09:11;95007.84;;;-2.64;100.00
21658;BME280;10990;48.174;9.782;2023-02-28T07:11:39;95014.00;;;-2.67;100.00
21658;BME280;10990;48.174;9.782;2023-02-28T07:14:08;95014.44;;;-2.59;100.00
21658;BME280;10990;48.174;9.782;2023-02-28T07:16:36;95015.31;;;-2.60;100.00
21658;BME280;10990;48.174;9.782;2023-02-28T07:19:03;95014.09;;;-2.68;100.00
21658;BME280;10990;48.174;9.782;2023-02-28T07:21:30;95027.53;;;-2.62;100.00
21658;BME280;10990;48.174;9.782;2023-02-28T07:23:57;95027.53;;;-2.62;100.00
21658;BME280;10990;48.174;9.782;2023-02-28T07:26:24;95025.09;;;-2.65;100.00
21658;BME280;10990;48.174;9.782;2023-02-28T07:28:51;95023.84;;;-2.58;100.00
21658;BME280;10990;48.174;9.782;2023-02-28T07:31:18;95027.19;;;-2.56;100.00
21658;BME280;10990;48.174;9.782;2023-02-28T07:33:46;95027.03;;;-2.53;100.00
21658;BME280;10990;48.174;9.782;2023-02-28T07:36:16;95038.28;;;-2.54;100.00
21658;BME280;10990;48.174;9.782;2023-02-28T07:38:45;95047.91;;;-2.56;100.00
21658;BME280;10990;48.174;9.782;2023-02-28T07:41:13;95046.22;;;-2.57;100.00
21658;BME280;10990;48.174;9.782;2023-02-28T07:43:40;95046.03;;;-2.54;100.00
21658;BME280;10990;48.174;9.782;2023-02-28T07:46:09;95053.81;;;-2.54;100.00
21658;BME280;10990;48.174;9.782;2023-02-28T07:48:36;95049.97;;;-2.46;100.00
21658;BME280;10990;48.174;9.782;2023-02-28T07:51:05;95055.22;;;-2.48;100.00
21658;BME280;10990;48.174;9.782;2023-02-28T07:53:32;95062.91;;;-2.46;100.00
21658;BME280;10990;48.174;9.782;2023-02-28T07:55:59;95061.41;;;-2.51;100.00
21658;BME280;10990;48.174;9.782;2023-02-28T07:58:27;95059.09;;;-2.55;100.00
21658;BME280;10990;48.174;9.782;2023-02-28T08:00:55;95064.69;;;-2.47;100.00
21658;BME280;10990;48.174;9.782;2023-02-28T08:03:23;95055.63;;;-2.40;100.00
21658;BME280;10990;48.174;9.782;2023-02-28T08:05:50;95053.50;;;-2.47;100.00
21658;BME280;10990;48.174;9.782;2023-02-28T08:08:19;95059.50;;;-2.47;100.00
21658;BME280;10990;48.174;9.782;2023-02-28T08:10:46;95070.75;;;-2.48;100.00
21658;BME280;10990;48.174;9.782;2023-02-28T08:13:13;95063.22;;;-2.37;100.00
21658;BME280;10990;48.174;9.782;2023-02-28T08:15:41;95081.09;;;-2.48;100.00
21658;BME280;10990;48.174;9.782;2023-02-28T08:18:08;95075.63;;;-2.42;100.00
21658;BME280;10990;48.174;9.782;2023-02-28T08:20:34;95080.63;;;-2.39;100.00
21658;BME280;10990;48.174;9.782;2023-02-28T08:23:01;95083.09;;;-2.37;100.00
21658;BME280;10990;48.174;9.782;2023-02-28T08:25:29;95084.03;;;-2.38;100.00
21658;BME280;10990;48.174;9.782;2023-02-28T08:27:56;95104.16;;;-2.43;100.00
21658;BME280;10990;48.174;9.782;2023-02-28T08:30:23;95098.75;;;-2.39;100.00
21658;BME280;10990;48.174;9.782;2023-02-28T08:32:49;95104.59;;;-2.35;100.00
21658;BME280;10990;48.174;9.782;2023-02-28T08:35:16;95105.34;;;-2.33;100.00
21658;BME280;10990;48.174;9.782;2023-02-28T08:37:43;95112.25;;;-2.34;100.00
21658;BME280;10990;48.174;9.782;2023-02-28T08:40:10;95125.13;;;-2.32;100.00
21658;BME280;10990;48.174;9.782;2023-02-28T08:42:44;95122.47;;;-2.31;100.00
21658;BME280;10990;48.174;9.782;2023-02-28T08:45:11;95141.44;;;-2.30;100.00
21658;BME280;10990;48.174;9.782;2023-02-28T08:47:38;95138.56;;;-2.26;100.00
21658;BME280;10990;48.174;9.782;2023-02-28T08:50:06;95132.97;;;-2.18;100.00
21658;BME280;10990;48.174;9.782;2023-02-28T08:52:33;95139.50;;;-2.27;100.00
21658;BME280;10990;48.174;9.782;2023-02-28T08:55:00;95140.59;;;-2.31;100.00
21658;BME280;10990;48.174;9.782;2023-02-28T08:57:26;95137.72;;;-2.26;100.00
21658;BME280;10990;48.174;9.782;2023-02-28T08:59:54;95145.50;;;-2.26;100.00
21658;BME280;10990;48.174;9.782;2023-02-28T09:02:22;95144.19;;;-2.33;100.00
21658;BME280;10990;48.174;9.782;2023-02-28T09:04:49;95149.78;;;-2.25;100.00
21658;BME280;10990;48.174;9.782;2023-02-28T09:07:16;95147.00;;;-2.22;100.00
21658;BME280;10990;48.174;9.782;2023-02-28T09:09:43;95158.03;;;-2.18;100.00
21658;BME280;10990;48.174;9.782;2023-02-28T09:12:19;95159.09;;;-2.22;100.00
21658;BME280;10990;48.174;9.782;2023-02-28T09:14:46;95154.50;;;-2.17;100.00
21658;BME280;10990;48.174;9.782;2023-02-28T09:17:14;95159.53;;;-2.14;100.00
21658;BME280;10990;48.174;9.782;2023-02-28T09:19:41;95171.81;;;-2.18;100.00
21658;BME280;10990;48.174;9.782;2023-02-28T09:22:08;95163.34;;;-2.06;100.00
21658;BME280;10990;48.174;9.782;2023-02-28T09:24:36;95186.19;;;-2.12;100.00
21658;BME280;10990;48.174;9.782;2023-02-28T09:27:03;95185.53;;;-2.16;100.00
21658;BME280;10990;48.174;9.782;2023-02-28T09:29:30;95199.97;;;-2.12;100.00
21658;BME280;10990;48.174;9.782;2023-02-28T09:31:57;95198.72;;;-2.05;100.00
21658;BME280;10990;48.174;9.782;2023-02-28T09:34:25;95208.50;;;-2.10;100.00
21658;BME280;10990;48.174;9.782;2023-02-28T09:36:52;95207.25;;;-2.03;100.00
21658;BME280;10990;48.174;9.782;2023-02-28T09:39:20;95206.56;;;-1.90;100.00
21658;BME280;10990;48.174;9.782;2023-02-28T09:41:49;95216.94;;;-1.90;100.00
21658;BME280;10990;48.174;9.782;2023-02-28T09:44:21;95225.72;;;-1.93;100.00
21658;BME280;10990;48.174;9.782;2023-02-28T09:46:53;95230.91;;;-1.93;100.00
21658;BME280;10990;48.174;9.782;2023-02-28T09:49:25;95245.03;;;-1.98;100.00
21658;BME280;10990;48.174;9.782;2023-02-28T09:51:58;95242.69;;;-1.87;100.00
21658;BME280;10990;48.174;9.782;2023-02-28T09:54:28;95240.66;;;-1.82;100.00
21658;BME280;10990;48.174;9.782;2023-02-28T09:56:59;95244.50;;;-1.73;100.00
21658;BME280;10990;48.174;9.782;2023-02-28T10:02:39;95259.00;;;-1.85;100.00
21658;BME280;10990;48.174;9.782;2023-02-28T10:05:12;95257.06;;;-1.82;100.00
21658;BME280;10990;48.174;9.782;2023-02-28T10:07:55;95266.19;;;-1.74;100.00
21658;BME280;10990;48.174;9.782;2023-02-28T10:10:29;95295.34;;;-1.87;100.00
21658;BME280;10990;48.174;9.782;2023-02-28T10:13:00;95288.81;;;-1.78;100.00
21658;BME280;10990;48.174;9.782;2023-02-28T10:15:30;95291.06;;;-1.72;100.00
21658;BME280;10990;48.174;9.782;2023-02-28T10:18:00;95299.00;;;-1.59;100.00
21658;BME280;10990;48.174;9.782;2023-02-28T10:20:32;95308.03;;;-1.66;100.00
21658;BME280;10990;48.174;9.782;2023-02-28T10:23:04;95302.59;;;-1.46;100.00
21658;BME280;10990;48.174;9.782;2023-02-28T10:25:35;95311.56;;;-1.51;100.00
21658;BME280;10990;48.174;9.782;2023-02-28T10:28:09;95321.34;;;-1.56;100.00
21658;BME280;10990;48.174;9.782;2023-02-28T10:30:40;95327.59;;;-1.61;100.00
21658;BME280;10990;48.174;9.782;2023-02-28T10:33:17;95322.44;;;-1.45;100.00
21658;BME280;10990;48.174;9.782;2023-02-28T10:35:46;95328.97;;;-1.53;100.00
21658;BME280;10990;48.174;9.782;2023-02-28T10:38:17;95331.88;;;-1.44;100.00
21658;BME280;10990;48.174;9.782;2023-02-28T10:40:44;95346.69;;;-1.62;100.00
21658;BME280;10990;48.174;9.782;2023-02-28T10:43:19;95332.56;;;-1.40;100.00
21658;BME280;10990;48.174;9.782;2023-02-28T10:45:57;95348.28;;;-1.43;100.00
21658;BME280;10990;48.174;9.782;2023-02-28T10:48:36;95377.00;;;-1.46;100.00
21658;BME280;10990;48.174;9.782;2023-02-28T10:51:07;95385.34;;;-1.57;100.00
21658;BME280;10990;48.174;9.782;2023-02-28T10:53:38;95396.56;;;-1.41;100.00
21658;BME280;10990;48.174;9.782;2023-02-28T10:56:15;95387.59;;;-1.19;100.00
21658;BME280;10990;48.174;9.782;2023-02-28T10:58:48;95407.59;;;-1.21;100.00
21658;BME280;10990;48.174;9.782;2023-02-28T11:01:16;95429.69;;;-1.30;100.00
21658;BME280;10990;48.174;9.782;2023-02-28T11:03:44;95434.69;;;-1.27;100.00
21658;BME280;10990;48.174;9.782;2023-02-28T11:06:17;95437.13;;;-1.08;100.00
21658;BME280;10990;48.174;9.782;2023-02-28T11:08:50;95439.72;;;-1.08;100.00
21658;BME280;10990;48.174;9.782;2023-02-28T11:11:19;95465.19;;;-1.15;100.00
21658;BME280;10990;48.174;9.782;2023-02-28T11:13:47;95462.44;;;-1.11;100.00
21658;BME280;10990;48.174;9.782;2023-02-28T11:16:16;95453.28;;;-0.87;100.00
21658;BME280;10990;48.174;9.782;2023-02-28T11:18:48;95457.09;;;-0.62;100.00
21658;BME280;10990;48.174;9.782;2023-02-28T11:21:20;95485.00;;;-0.82;100.00
21658;BME280;10990;48.174;9.782;2023-02-28T11:23:49;95507.28;;;-0.94;100.00
21658;BME280;10990;48.174;9.782;2023-02-28T11:26:35;95496.63;;;-0.57;100.00
21658;BME280;10990;48.174;9.782;2023-02-28T11:29:10;95507.03;;;-0.57;100.00
21658;BME280;10990;48.174;9.782;2023-02-28T11:31:37;95519.34;;;-0.61;100.00
21658;BME280;10990;48.174;9.782;2023-02-28T11:34:23;95520.13;;;-0.59;100.00
21658;BME280;10990;48.174;9.782;2023-02-28T11:36:52;95533.28;;;-0.62;100.00
21658;BME280;10990;48.174;9.782;2023-02-28T11:39:20;95532.41;;;-0.62;100.00
21658;BME280;10990;48.174;9.782;2023-02-28T11:41:59;95548.91;;;-0.79;100.00
21658;BME280;10990;48.174;9.782;2023-02-28T11:44:42;95532.25;;;-0.59;100.00
21658;BME280;10990;48.174;9.782;2023-02-28T11:47:15;95526.91;;;-0.72;100.00
21658;BME280;10990;48.174;9.782;2023-02-28T11:49:48;95521.19;;;-0.63;100.00
21658;BME280;10990;48.174;9.782;2023-02-28T11:52:21;95518.44;;;-0.76;100.00
21658;BME280;10990;48.174;9.782;2023-02-28T11:55:02;95503.69;;;-0.75;100.00
21658;BME280;10990;48.174;9.782;2023-02-28T11:57:49;95484.25;;;-0.68;100.00
21658;BME280;10990;48.174;9.782;2023-02-28T12:00:34;95491.78;;;-0.79;100.00
21658;BME280;10990;48.174;9.782;2023-02-28T12:03:13;95473.00;;;-0.53;100.00
21658;BME280;10990;48.174;9.782;2023-02-28T12:05:45;95470.47;;;-0.54;100.00
21658;BME280;10990;48.174;9.782;2023-02-28T12:08:25;95484.59;;;-0.58;100.00
21658;BME280;10990;48.174;9.782;2023-02-28T12:11:02;95490.06;;;-0.33;100.00
21658;BME280;10990;48.174;9.782;2023-02-28T12:13:41;95491.91;;;-0.35;100.00
21658;BME280;10990;48.174;9.782;2023-02-28T12:19:13;95505.28;;;0.04;100.00
21658;BME280;10990;48.174;9.782;2023-02-28T12:21:57;95517.66;;;0.00;100.00
21658;BME280;10990;48.174;9.782;2023-02-28T12:24:42;95532.81;;;0.22;100.00
21658;BME280;10990;48.174;9.782;2023-02-28T12:27:15;95534.88;;;0.31;100.00
21658;BME280;10990;48.174;9.782;2023-02-28T12:29:46;95571.59;;;0.11;100.00
21658;BME280;10990;48.174;9.782;2023-02-28T12:32:19;95553.84;;;0.48;100.00
21658;BME280;10990;48.174;9.782;2023-02-28T12:34:51;95579.53;;;0.24;100.00
21658;BME280;10990;48.174;9.782;2023-02-28T12:37:22;95589.84;;;0.25;100.00
21658;BME280;10990;48.174;9.782;2023-02-28T12:39:55;95598.72;;;0.37;100.00
21658;BME280;10990;48.174;9.782;2023-02-28T12:42:28;95594.25;;;0.39;100.00
21658;BME280;10990;48.174;9.782;2023-02-28T12:44:58;95616.72;;;0.26;100.00
21658;BME280;10990;48.174;9.782;2023-02-28T12:47:26;95637.41;;;0.27;100.00
21658;BME280;10990;48.174;9.782;2023-02-28T12:49:56;95632.44;;;0.38;100.00
21658;BME280;10990;48.174;9.782;2023-02-28T12:52:31;95622.28;;;0.78;100.00
21658;BME280;10990;48.174;9.782;2023-02-28T12:55:10;95646.75;;;0.76;100.00
21658;BME280;10990;48.174;9.782;2023-02-28T12:57:42;95654.31;;;0.50;100.00
21658;BME280;10990;48.174;9.782;2023-02-28T13:00:16;95639.31;;;0.84;100.00
21658;BME280;10990;48.174;9.782;2023-02-28T13:06:13;95663.34;;;1.03;100.00
21658;BME280;10990;48.174;9.782;2023-02-28T13:09:01;95682.66;;;0.85;100.00
21658;BME280;10990;48.174;9.782;2023-02-28T13:11:32;95681.47;;;0.91;100.00
21658;BME280;10990;48.174;9.782;2023-02-28T13:14:01;95690.00;;;0.93;100.00
21658;BME280;10990;48.174;9.782;2023-02-28T13:16:51;95696.97;;;0.92;100.00
21658;BME280;10990;48.174;9.782;2023-02-28T13:19:20;95703.16;;;1.20;100.00